Time;durP1;ratioP1;P1;durP2;ratioP2;P2;SDS_P1;SDS_P2;PMS_P1;PMS_P2;Temp;Humidity;BMP_temperature;BMP_pressure;BME280_temperature;BME280_humidity;BME280_pressure;Samples;Min_cycle;Max_cycle;Signal;HPM_P1;HPM_P2
2024/03/04 00:02:02;;;;;;;37.30;24.00;;;;;;;11.25;66.89;98166.27;231937;204;140291;-58
2024/03/04 00:07:06;;;;;;;34.80;24.40;;;;;;;11.22;66.93;98168.48;231829;198;138207;-57
2024/03/04 00:12:09;;;;;;;36.80;24.20;;;;;;;11.17;66.86;98167.63;231865;198;153834;-57
2024/03/04 00:17:13;;;;;;;36.20;23.50;;;;;;;11.10;67.03;98163.58;231762;198;139060;-58
2024/03/04 00:22:16;;;;;;;35.50;23.80;;;;;;;11.01;67.28;98154.70;231953;201;137658;-57
2024/03/04 00:27:21;;;;;;;36.80;24.80;;;;;;;10.92;67.47;98152.73;231837;198;153721;-57
2024/03/04 00:32:25;;;;;;;38.60;23.80;;;;;;;10.85;67.84;98153.41;231989;204;138106;-57
2024/03/04 00:37:29;;;;;;;36.10;24.20;;;;;;;10.79;67.95;98154.77;232007;202;138532;-57
2024/03/04 00:42:33;;;;;;;35.70;25.10;;;;;;;10.74;68.19;98154.83;231771;205;153425;-56
2024/03/04 00:47:37;;;;;;;33.80;23.80;;;;;;;10.70;68.23;98152.52;231719;205;138626;-56
2024/03/04 00:52:40;;;;;;;36.80;23.70;;;;;;;10.62;68.32;98157.11;231883;205;138151;-58
2024/03/04 00:57:43;;;;;;;34.10;22.00;;;;;;;10.59;68.35;98161.83;231826;198;153287;-57
2024/03/04 01:02:46;;;;;;;34.80;24.10;;;;;;;10.57;68.30;98160.58;231995;201;138589;-59
2024/03/04 01:07:50;;;;;;;39.10;23.60;;;;;;;10.53;68.38;98160.11;231901;199;138237;-57
2024/03/04 01:12:54;;;;;;;37.10;23.90;;;;;;;10.49;68.22;98163.33;231801;205;153703;-57
2024/03/04 01:17:57;;;;;;;35.30;24.80;;;;;;;10.43;68.13;98160.42;231744;199;139871;-56
2024/03/04 01:23:00;;;;;;;35.10;25.20;;;;;;;10.33;68.14;98160.44;231958;197;138581;-58
2024/03/04 01:28:04;;;;;;;34.60;25.30;;;;;;;10.22;68.43;98157.31;231835;198;153783;-56
2024/03/04 01:33:07;;;;;;;38.00;26.40;;;;;;;10.16;68.71;98157.74;231832;199;138772;-57
2024/03/04 01:38:10;;;;;;;36.20;25.50;;;;;;;10.11;68.79;98160.10;231825;198;137561;-57
2024/03/04 01:43:13;;;;;;;36.40;25.80;;;;;;;10.04;68.82;98158.80;231831;198;154317;-56
2024/03/04 01:48:17;;;;;;;38.30;24.80;;;;;;;9.94;68.77;98159.71;231802;198;137658;-56
2024/03/04 01:53:21;;;;;;;37.00;25.30;;;;;;;9.84;68.93;98158.39;231938;197;138525;-56
2024/03/04 01:58:25;;;;;;;40.70;27.10;;;;;;;9.77;69.41;98162.80;231821;198;153948;-57
2024/03/04 02:03:31;;;;;;;38.90;25.40;;;;;;;9.74;69.63;98158.56;231962;198;138265;-57
2024/03/04 02:08:38;;;;;;;40.50;25.70;;;;;;;9.73;69.75;98158.80;231821;202;138395;-57
2024/03/04 02:13:41;;;;;;;36.40;26.30;;;;;;;9.74;69.81;98162.30;232093;198;153828;-57
2024/03/04 02:18:44;;;;;;;38.40;26.20;;;;;;;9.76;69.87;98166.95;231899;202;138789;-57
2024/03/04 02:23:47;;;;;;;41.90;26.80;;;;;;;9.76;69.95;98174.00;231927;205;140096;-57
2024/03/04 02:28:51;;;;;;;39.90;27.30;;;;;;;9.78;69.88;98176.20;231966;198;153358;-56
2024/03/04 02:33:54;;;;;;;41.00;25.70;;;;;;;9.77;69.81;98174.14;231899;205;139325;-57
2024/03/04 02:38:58;;;;;;;38.30;26.40;;;;;;;9.70;69.76;98174.80;231927;205;139137;-54
2024/03/04 02:44:01;;;;;;;41.30;26.90;;;;;;;9.65;69.78;98174.09;231838;198;153056;-57
2024/03/04 02:49:04;;;;;;;39.80;26.30;;;;;;;9.58;69.87;98176.67;231879;205;150542;-57
2024/03/04 02:54:08;;;;;;;36.80;26.10;;;;;;;9.51;69.74;98179.15;231898;197;138775;-56
2024/03/04 02:59:11;;;;;;;38.60;26.40;;;;;;;9.41;69.81;98181.96;231867;205;153367;-56
2024/03/04 03:04:15;;;;;;;43.60;26.50;;;;;;;9.32;69.66;98181.09;231816;205;138582;-57
2024/03/04 03:09:19;;;;;;;38.80;25.10;;;;;;;9.20;69.71;98180.65;231867;201;138256;-56
2024/03/04 03:14:22;;;;;;;43.30;25.10;;;;;;;9.11;70.01;98184.85;231906;202;153328;-56
2024/03/04 03:19:26;;;;;;;37.90;25.70;;;;;;;9.06;70.23;98191.34;231889;199;139056;-57
2024/03/04 03:24:29;;;;;;;42.90;27.60;;;;;;;9.08;70.57;98192.11;231905;198;138230;-57
2024/03/04 03:29:32;;;;;;;41.50;28.00;;;;;;;9.13;70.63;98197.77;232090;205;153250;-56
2024/03/04 03:34:36;;;;;;;44.40;28.40;;;;;;;9.15;70.46;98195.89;231866;199;137829;-57
2024/03/04 03:39:39;;;;;;;45.10;29.30;;;;;;;9.15;70.52;98188.48;231924;198;138676;-56
2024/03/04 03:44:42;;;;;;;41.70;27.50;;;;;;;9.10;70.43;98184.91;231819;199;155061;-54
2024/03/04 03:49:45;;;;;;;37.90;27.60;;;;;;;9.06;70.43;98186.07;231960;202;137483;-55
2024/03/04 03:54:48;;;;;;;43.80;28.90;;;;;;;9.01;70.40;98183.19;231827;199;138324;-56
2024/03/04 03:59:52;;;;;;;39.20;26.20;;;;;;;8.96;70.45;98181.58;231901;198;154489;-53
2024/03/04 04:04:55;;;;;;;45.70;28.50;;;;;;;8.88;70.55;98177.60;231778;199;138808;-57
2024/03/04 04:09:59;;;;;;;41.90;28.60;;;;;;;8.80;70.62;98183.08;231869;198;139877;-56
2024/03/04 04:15:03;;;;;;;42.30;27.40;;;;;;;8.76;70.85;98188.13;231888;198;153271;-56
2024/03/04 04:20:07;;;;;;;39.60;27.40;;;;;;;8.77;70.90;98193.02;231670;203;138622;-57
2024/03/04 04:25:12;;;;;;;44.00;27.80;;;;;;;8.81;70.90;98184.75;231858;199;139529;-57
2024/03/04 04:30:16;;;;;;;42.80;27.70;;;;;;;8.87;70.67;98185.42;231894;202;155134;-56
2024/03/04 04:35:19;;;;;;;40.50;27.80;;;;;;;8.88;70.47;98184.09;231854;202;138433;-57
2024/03/04 04:40:22;;;;;;;38.50;26.90;;;;;;;8.85;70.41;98190.70;231822;199;138017;-56
2024/03/04 04:45:26;;;;;;;43.50;28.40;;;;;;;8.81;70.43;98193.65;231897;198;153212;-56
2024/03/04 04:50:29;;;;;;;41.80;28.50;;;;;;;8.76;70.52;98195.02;231882;199;138204;-58
2024/03/04 04:55:32;;;;;;;43.60;29.00;;;;;;;8.70;70.85;98198.61;231958;198;137763;-56
2024/03/04 05:00:36;;;;;;;44.00;29.60;;;;;;;8.67;71.01;98197.20;231904;205;153621;-56
2024/03/04 05:05:39;;;;;;;38.70;28.30;;;;;;;8.65;71.10;98199.98;231906;198;138651;-57
2024/03/04 05:10:42;;;;;;;42.80;28.20;;;;;;;8.65;71.18;98195.45;231973;198;137402;-56
2024/03/04 05:15:46;;;;;;;40.40;28.00;;;;;;;8.66;71.26;98192.15;231947;198;153403;-56
2024/03/04 05:20:51;;;;;;;42.30;28.20;;;;;;;8.73;71.17;98197.72;231802;198;138447;-56
2024/03/04 05:25:59;;;;;;;43.30;29.30;;;;;;;8.82;71.02;98203.48;231978;205;138159;-55
2024/03/04 05:31:03;;;;;;;49.20;31.10;;;;;;;8.88;70.75;98207.33;231886;198;152996;-56
2024/03/04 05:36:08;;;;;;;41.80;29.70;;;;;;;8.88;70.66;98208.34;231838;198;154677;-56
2024/03/04 05:41:11;;;;;;;46.90;30.40;;;;;;;8.86;70.65;98210.04;231884;202;138214;-55
2024/03/04 05:46:14;;;;;;;46.30;30.20;;;;;;;8.85;70.54;98214.96;231890;198;154091;-56
2024/03/04 05:51:18;;;;;;;44.10;29.90;;;;;;;8.83;70.51;98216.85;232055;205;139194;-57
2024/03/04 05:56:22;;;;;;;42.50;30.20;;;;;;;8.81;70.52;98219.30;231925;202;137662;-55
2024/03/04 06:01:25;;;;;;;45.30;29.70;;;;;;;8.80;70.47;98218.48;231841;199;154249;-58
2024/03/04 06:06:28;;;;;;;48.50;28.50;;;;;;;8.77;70.46;98213.52;231828;198;138090;-56
2024/03/04 06:11:32;;;;;;;49.40;29.00;;;;;;;8.80;70.59;98220.95;232061;202;138756;-55
2024/03/04 06:16:35;;;;;;;51.80;31.40;;;;;;;8.85;70.44;98221.98;232055;198;153369;-57
2024/03/04 06:21:38;;;;;;;48.60;29.50;;;;;;;8.92;70.38;98235.17;231783;202;138621;-58
2024/03/04 06:26:43;;;;;;;555.70;411.50;;;;;;;9.22;73.81;98233.40;231828;199;138002;-57
2024/03/04 06:31:46;;;;;;;144.20;94.20;;;;;;;9.35;71.04;98236.97;232016;205;153095;-58
2024/03/04 06:36:49;;;;;;;59.20;36.80;;;;;;;9.37;70.85;98237.67;231876;198;138977;-59
2024/03/04 06:41:53;;;;;;;62.80;35.00;;;;;;;9.33;70.37;98240.48;231824;202;138534;-59
2024/03/04 06:46:56;;;;;;;57.00;34.20;;;;;;;9.32;70.63;98242.67;231967;199;153146;-59
2024/03/04 06:51:59;;;;;;;56.60;33.60;;;;;;;9.35;70.67;98248.97;231868;198;150258;-58
2024/03/04 06:57:03;;;;;;;55.50;31.60;;;;;;;9.34;70.68;98247.65;231819;199;141915;-58
2024/03/04 07:02:06;;;;;;;56.10;31.80;;;;;;;9.42;70.86;98248.31;231870;198;153959;-59
2024/03/04 07:07:09;;;;;;;54.50;33.30;;;;;;;9.52;70.56;98243.36;231842;205;138417;-58
2024/03/04 07:12:13;;;;;;;52.80;32.40;;;;;;;9.64;70.57;98245.52;231953;201;137396;-58
2024/03/04 07:17:16;;;;;;;47.20;32.80;;;;;;;9.73;70.30;98244.89;231849;198;153267;-56
2024/03/04 07:22:20;;;;;;;239.20;176.70;;;;;;;9.82;70.75;98245.52;231933;201;138263;-58
2024/03/04 07:27:23;;;;;;;56.10;34.10;;;;;;;10.05;70.65;98243.29;231838;205;137971;-59
2024/03/04 07:32:27;;;;;;;52.50;34.50;;;;;;;10.04;69.56;98247.80;231886;202;153808;-58
2024/03/04 07:37:30;;;;;;;60.50;33.70;;;;;;;10.00;69.54;98250.97;231922;205;138415;-58
2024/03/04 07:42:34;;;;;;;52.00;34.80;;;;;;;9.98;69.56;98251.42;231960;199;141161;-58
2024/03/04 07:47:37;;;;;;;152.30;107.30;;;;;;;10.01;69.68;98250.02;231937;201;153720;-57
2024/03/04 07:52:40;;;;;;;54.50;33.20;;;;;;;10.10;69.78;98250.77;231710;199;139130;-56
2024/03/04 07:57:43;;;;;;;51.40;34.20;;;;;;;10.10;69.36;98247.53;231636;202;139210;-55
2024/03/04 08:02:46;;;;;;;51.70;34.10;;;;;;;10.14;69.32;98250.96;232061;205;153443;-56
2024/03/04 08:07:50;;;;;;;65.10;35.40;;;;;;;10.21;69.58;98252.20;231798;205;138418;-56
2024/03/04 08:12:53;;;;;;;59.90;36.00;;;;;;;10.26;69.39;98246.72;231882;205;137527;-56
2024/03/04 08:17:56;;;;;;;58.90;36.30;;;;;;;10.25;69.24;98241.47;231908;198;153508;-56
2024/03/04 08:22:59;;;;;;;55.90;36.20;;;;;;;10.24;69.31;98243.48;231755;198;137972;-55
2024/03/04 08:28:03;;;;;;;52.90;35.80;;;;;;;10.25;69.29;98249.96;231884;199;138591;-56
2024/03/04 08:33:16;;;;;;;51.10;34.30;;;;;;;10.33;69.39;98248.73;231858;198;153226;-54
2024/03/04 08:38:20;;;;;;;54.30;36.40;;;;;;;10.45;69.58;98249.96;231831;198;138067;-55
2024/03/04 08:43:23;;;;;;;50.80;33.70;;;;;;;10.62;69.51;98247.23;231915;198;137985;-56
2024/03/04 08:48:26;;;;;;;47.20;31.30;;;;;;;10.77;69.12;98248.80;231913;205;154847;-56
2024/03/04 08:53:29;;;;;;;47.20;31.40;;;;;;;10.93;68.90;98244.73;231936;202;138574;-56
2024/03/04 08:58:33;;;;;;;51.20;31.80;;;;;;;11.17;68.52;98238.98;231838;205;139215;-53
2024/03/04 09:03:39;;;;;;;50.30;32.60;;;;;;;11.39;68.24;98238.73;231790;198;154099;-56
2024/03/04 09:08:43;;;;;;;48.10;32.90;;;;;;;11.58;68.01;98238.84;231799;198;137502;-56
2024/03/04 09:13:46;;;;;;;54.20;35.50;;;;;;;11.73;67.63;98233.69;231856;198;137437;-57
2024/03/04 09:18:50;;;;;;;55.30;37.30;;;;;;;11.86;67.25;98234.88;231837;199;153214;-56
2024/03/04 09:23:54;;;;;;;56.50;37.20;;;;;;;11.97;67.18;98234.48;231816;198;138600;-56
2024/03/04 09:28:57;;;;;;;188.10;127.40;;;;;;;12.15;67.22;98233.54;231813;205;138750;-55
2024/03/04 09:34:02;;;;;;;54.20;35.60;;;;;;;12.33;67.01;98225.30;231933;201;154123;-56
2024/03/04 09:39:06;;;;;;;;;;;;;;;12.46;66.55;98222.81;231709;205;137699;-62
2024/03/04 09:44:09;;;;;;;50.40;32.70;;;;;;;12.59;66.03;98224.11;232020;199;138504;-62
2024/03/04 09:49:13;;;;;;;43.40;31.20;;;;;;;12.74;65.49;98223.20;231789;202;153630;-62
2024/03/04 09:54:18;;;;;;;40.60;29.50;;;;;;;12.91;65.44;98225.84;231818;198;138448;-59
2024/03/04 09:59:22;;;;;;;48.10;36.10;;;;;;;13.03;65.27;98226.98;231839;198;137795;-61
2024/03/04 10:04:26;;;;;;;44.90;31.50;;;;;;;13.15;65.19;98222.52;231800;198;153165;-61
2024/03/04 10:09:29;;;;;;;435.50;373.00;;;;;;;13.37;64.97;98215.70;231704;203;138186;-59
2024/03/04 10:14:57;;;;;;;58.00;41.50;;;;;;;13.62;65.01;98213.86;231744;205;138607;-60
2024/03/04 10:20:06;;;;;;;46.10;32.40;;;;;;;13.91;64.32;98205.20;231723;198;155525;-62
2024/03/04 10:25:10;;;;;;;422.60;340.40;;;;;;;14.22;64.20;98199.75;231683;198;138269;-60
2024/03/04 10:30:19;;;;;;;54.60;38.50;;;;;;;14.64;63.82;98194.50;231860;198;137783;-61
2024/03/04 10:35:27;;;;;;;255.50;187.20;;;;;;;15.00;62.97;98187.28;231772;198;154676;-60
2024/03/04 10:40:34;;;;;;;52.10;33.80;;;;;;;15.28;62.17;98178.36;231728;202;138118;-61
2024/03/04 10:45:39;;;;;;;78.50;58.60;;;;;;;15.49;61.36;98178.32;231893;197;137787;-60
2024/03/04 10:50:43;;;;;;;35.10;23.60;;;;;;;15.75;61.22;98171.48;231840;199;154084;-57
2024/03/04 10:55:53;;;;;;;38.90;28.40;;;;;;;16.00;60.18;98163.50;231910;198;138634;-57
2024/03/04 11:00:57;;;;;;;29.90;21.70;;;;;;;16.18;59.58;98149.36;231850;199;138408;-59
2024/03/04 11:06:03;;;;;;;32.60;23.60;;;;;;;16.40;59.24;98145.11;231800;197;153315;-58
2024/03/04 11:11:12;;;;;;;35.40;22.90;;;;;;;16.62;58.90;98138.52;231843;204;138118;-57
2024/03/04 11:16:24;;;;;;;31.00;22.20;;;;;;;16.68;58.16;98130.37;231838;198;138079;-59
2024/03/04 11:21:28;;;;;;;32.80;22.30;;;;;;;16.73;58.10;98134.55;231848;198;153890;-58
2024/03/04 11:26:34;;;;;;;32.00;22.30;;;;;;;16.56;57.35;98136.41;231735;205;137968;-58
2024/03/04 11:31:38;;;;;;;25.80;20.50;;;;;;;16.34;57.72;98134.34;231760;205;137952;-59
2024/03/04 11:36:42;;;;;;;27.50;20.50;;;;;;;16.36;58.08;98127.55;231802;198;153428;-58
2024/03/04 11:41:49;;;;;;;28.80;21.30;;;;;;;16.30;57.81;98126.21;231772;205;138550;-58
2024/03/04 11:46:56;;;;;;;28.10;20.80;;;;;;;16.22;57.86;98120.70;231837;199;138272;-58
2024/03/04 11:52:14;;;;;;;27.30;19.60;;;;;;;16.11;57.99;98121.67;231733;198;153372;-59
2024/03/04 11:57:17;;;;;;;28.90;20.40;;;;;;;16.01;57.77;98114.09;231768;199;137912;-58
2024/03/04 12:02:20;;;;;;;32.80;20.90;;;;;;;15.89;58.19;98103.09;231807;205;137605;-55
2024/03/04 12:07:24;;;;;;;29.30;20.80;;;;;;;15.74;58.48;98099.70;231773;198;153991;-58
2024/03/04 12:12:28;;;;;;;25.20;20.30;;;;;;;15.64;58.65;98098.71;231970;204;138082;-59
2024/03/04 12:17:32;;;;;;;31.00;21.20;;;;;;;15.48;58.58;98099.39;231728;199;138396;-58
2024/03/04 12:22:37;;;;;;;34.30;21.20;;;;;;;15.31;59.12;98105.50;231761;202;153365;-58
2024/03/04 12:27:41;;;;;;;30.90;21.80;;;;;;;15.21;59.85;98102.20;231734;202;138021;-59
2024/03/04 12:32:48;;;;;;;31.40;21.90;;;;;;;15.19;60.50;98100.60;231785;198;137729;-59
2024/03/04 12:37:54;;;;;;;31.70;21.60;;;;;;;15.22;60.55;98094.58;231626;205;153223;-59
2024/03/04 12:43:04;;;;;;;139.90;91.40;;;;;;;15.24;60.44;98092.60;231903;198;138813;-60
2024/03/04 12:48:08;;;;;;;36.60;24.80;;;;;;;15.20;60.58;98096.95;231888;202;138012;-61
2024/03/04 12:53:14;;;;;;;39.90;23.20;;;;;;;15.12;61.13;98117.17;231778;198;152968;-60
2024/03/04 12:58:18;;;;;;;32.70;23.30;;;;;;;15.10;62.82;98091.63;231652;202;138696;-60
2024/03/04 13:03:21;;;;;;;33.20;25.00;;;;;;;15.06;63.85;98075.34;232016;205;138107;-59
2024/03/04 13:08:24;;;;;;;34.60;22.60;;;;;;;15.03;64.73;98067.26;232134;198;153428;-58
2024/03/04 13:13:27;;;;;;;234.90;176.00;;;;;;;15.05;65.08;98066.95;232115;198;138672;-56
2024/03/04 13:18:31;;;;;;;32.40;24.30;;;;;;;15.08;64.91;98067.72;232009;198;141912;-57
2024/03/04 13:23:34;;;;;;;33.70;23.80;;;;;;;15.03;64.72;98067.79;232094;198;153311;-57
2024/03/04 13:28:38;;;;;;;31.00;23.10;;;;;;;14.98;64.91;98067.08;232116;201;138081;-57
2024/03/04 13:33:41;;;;;;;32.10;24.80;;;;;;;14.92;64.78;98083.84;232161;205;138121;-57
2024/03/04 13:38:44;;;;;;;33.50;24.80;;;;;;;14.90;65.37;98089.71;232195;201;154279;-56
2024/03/04 13:43:47;;;;;;;29.70;22.80;;;;;;;14.90;66.62;98065.70;232110;197;138484;-57
2024/03/04 13:48:51;;;;;;;28.40;22.70;;;;;;;14.80;66.95;98059.96;232214;201;138087;-55
2024/03/04 13:53:54;;;;;;;31.30;22.90;;;;;;;14.77;67.32;98046.20;232191;201;153850;-56
2024/03/04 13:58:57;;;;;;;30.20;22.60;;;;;;;14.73;67.80;98043.92;232221;201;137911;-57
2024/03/04 14:04:00;;;;;;;26.50;20.60;;;;;;;14.66;68.14;98036.01;232197;201;137943;-57
2024/03/04 14:09:04;;;;;;;28.40;19.30;;;;;;;14.61;68.07;98055.69;232124;198;154886;-55
2024/03/04 14:14:07;;;;;;;27.40;20.50;;;;;;;14.71;67.98;98050.00;232338;198;139347;-57
2024/03/04 14:19:11;;;;;;;26.70;20.00;;;;;;;14.78;67.89;98042.30;232286;198;137630;-56
2024/03/04 14:24:14;;;;;;;32.90;18.60;;;;;;;14.81;67.92;98052.08;232130;205;153836;-57
2024/03/04 14:29:17;;;;;;;26.70;18.30;;;;;;;14.91;67.80;98057.85;232242;201;139011;-57
2024/03/04 14:34:21;;;;;;;29.20;18.50;;;;;;;14.97;67.38;98037.50;232213;205;138771;-58
2024/03/04 14:39:24;;;;;;;24.00;17.50;;;;;;;14.95;67.79;98030.90;232215;202;153098;-57
2024/03/04 14:44:27;;;;;;;24.60;16.90;;;;;;;14.86;67.96;98029.61;232261;198;138386;-56
2024/03/04 14:49:31;;;;;;;23.60;15.70;;;;;;;14.79;68.45;98025.77;232127;201;141773;-56
2024/03/04 14:54:34;;;;;;;22.20;13.40;;;;;;;14.78;69.17;98023.64;231851;205;153442;-57
2024/03/04 14:59:38;;;;;;;24.70;14.10;;;;;;;14.79;68.95;98029.73;232317;197;137769;-57
2024/03/04 15:04:42;;;;;;;19.70;12.40;;;;;;;14.79;68.91;98039.37;232283;198;137414;-56
2024/03/04 15:09:46;;;;;;;20.30;13.30;;;;;;;14.78;67.59;98046.52;232062;202;153332;-56
2024/03/04 15:14:49;;;;;;;21.10;13.50;;;;;;;14.77;67.18;98054.91;232308;198;137593;-55
2024/03/04 15:19:53;;;;;;;22.80;15.60;;;;;;;14.75;67.82;98050.66;232170;205;138372;-57
2024/03/04 15:24:57;;;;;;;22.20;14.20;;;;;;;14.71;68.28;98046.83;232069;205;153306;-57
2024/03/04 15:30:01;;;;;;;20.30;14.90;;;;;;;14.64;68.88;98044.94;232087;201;138341;-58
2024/03/04 15:35:05;;;;;;;20.10;14.40;;;;;;;14.57;69.49;98047.39;231938;197;138167;-57
2024/03/04 15:40:12;;;;;;;24.10;13.90;;;;;;;14.51;69.68;98046.69;232154;197;155361;-56
2024/03/04 15:45:16;;;;;;;27.30;18.10;;;;;;;14.49;69.75;98037.59;231917;205;138141;-57
2024/03/04 15:50:19;;;;;;;27.00;20.80;;;;;;;14.51;68.99;98037.92;232108;198;138911;-56
2024/03/04 15:55:22;;;;;;;28.50;22.30;;;;;;;14.53;68.77;98044.17;232200;198;154217;-56
2024/03/04 16:00:25;;;;;;;36.70;24.80;;;;;;;14.52;68.88;98044.06;232110;201;138350;-56
2024/03/04 16:05:28;;;;;;;42.20;25.30;;;;;;;14.48;68.65;98043.20;232089;198;137482;-52
2024/03/04 16:10:32;;;;;;;36.20;25.60;;;;;;;14.43;68.77;98044.16;231990;198;153072;-52
2024/03/04 16:15:35;;;;;;;35.20;24.90;;;;;;;14.37;68.78;98053.31;232007;198;138727;-53
2024/03/04 16:20:51;;;;;;;37.60;24.60;;;;;;;14.30;69.14;98049.45;232223;197;138437;-52
2024/03/04 16:25:54;;;;;;;35.20;24.80;;;;;;;14.23;69.38;98051.44;232163;198;153500;-53
2024/03/04 16:30:57;;;;;;;32.20;23.50;;;;;;;14.15;69.54;98058.74;232039;198;137466;-52
2024/03/04 16:36:01;;;;;;;34.10;22.10;;;;;;;14.13;69.69;98064.09;232237;197;138796;-53
2024/03/04 16:41:06;;;;;;;35.10;24.00;;;;;;;14.15;69.65;98064.16;231893;198;153065;-52
2024/03/04 16:46:09;;;;;;;34.70;24.40;;;;;;;14.17;69.40;98069.98;232131;205;139305;-50
2024/03/04 16:51:12;;;;;;;357.60;245.60;;;;;;;14.17;69.58;98079.05;232151;201;138316;-51
2024/03/04 16:56:16;;;;;;;35.60;26.60;;;;;;;14.14;69.58;98082.74;232149;201;155137;-50
2024/03/04 17:01:19;;;;;;;35.10;25.60;;;;;;;14.09;69.49;98089.67;232118;205;138268;-51
2024/03/04 17:06:24;;;;;;;39.20;25.60;;;;;;;14.05;69.65;98096.65;231929;197;142308;-51
2024/03/04 17:11:27;;;;;;;43.20;26.60;;;;;;;14.00;69.86;98106.50;232142;204;154081;-51
2024/03/04 17:16:31;;;;;;;35.80;23.40;;;;;;;13.94;69.96;98111.48;231625;205;138697;-47
2024/03/04 17:21:40;;;;;;;35.90;23.50;;;;;;;13.92;70.24;98110.75;231387;198;139005;-51
2024/03/04 17:26:44;;;;;;;35.80;26.30;;;;;;;13.95;70.08;98103.23;232007;202;153991;-49
2024/03/04 17:31:47;;;;;;;44.90;27.80;;;;;;;13.98;69.94;98103.71;232178;198;137629;-51
2024/03/04 17:36:50;;;;;;;41.60;27.70;;;;;;;13.96;69.67;98109.01;232202;201;138427;-50
2024/03/04 17:41:54;;;;;;;43.10;29.20;;;;;;;13.90;69.78;98115.92;232038;202;154195;-47
2024/03/04 17:46:57;;;;;;;43.40;29.90;;;;;;;13.85;69.79;98122.91;231783;205;137997;-51
2024/03/04 17:52:00;;;;;;;42.60;30.20;;;;;;;13.77;70.04;98121.56;232126;205;138908;-50
2024/03/04 17:57:04;;;;;;;43.80;30.40;;;;;;;13.71;70.29;98133.77;232125;202;153228;-51
2024/03/04 18:02:08;;;;;;;38.40;28.70;;;;;;;13.63;70.50;98132.82;232205;205;137389;-50
2024/03/04 18:07:11;;;;;;;41.40;28.60;;;;;;;13.59;70.76;98131.11;232097;198;138431;-50
2024/03/04 18:12:16;;;;;;;41.20;29.70;;;;;;;13.59;70.92;98126.44;232121;198;153241;-52
2024/03/04 18:17:19;;;;;;;42.90;31.60;;;;;;;13.61;71.21;98126.41;231913;201;138615;-49
2024/03/04 18:22:23;;;;;;;49.40;33.80;;;;;;;13.60;71.25;98126.85;232249;204;138717;-49
2024/03/04 18:27:26;;;;;;;47.50;33.40;;;;;;;13.58;71.23;98134.95;232110;198;153939;-47
2024/03/04 18:32:29;;;;;;;48.10;32.90;;;;;;;13.49;71.20;98139.76;231935;205;137589;-51
2024/03/04 18:37:33;;;;;;;45.80;33.50;;;;;;;13.43;71.33;98154.23;232207;205;139093;-50
2024/03/04 18:42:37;;;;;;;44.40;29.70;;;;;;;13.37;71.28;98171.13;232075;202;155377;-54
2024/03/04 18:47:40;;;;;;;40.10;29.20;;;;;;;13.29;70.82;98169.55;232069;197;138142;-50
2024/03/04 18:52:44;;;;;;;43.10;29.10;;;;;;;13.23;70.64;98170.38;232192;198;138767;-50
2024/03/04 18:57:47;;;;;;;40.00;28.90;;;;;;;13.19;70.30;98166.67;232168;197;153350;-54
2024/03/04 19:02:51;;;;;;;42.80;30.90;;;;;;;13.14;70.25;98163.29;231884;205;137881;-57
2024/03/04 19:07:54;;;;;;;51.10;33.60;;;;;;;13.11;70.05;98165.39;232174;198;138370;-56
2024/03/04 19:12:58;;;;;;;47.90;34.80;;;;;;;13.02;69.94;98163.79;232222;205;153124;-58
2024/03/04 19:18:01;;;;;;;51.10;34.70;;;;;;;12.91;70.11;98164.17;231979;202;138983;-53
2024/03/04 19:23:05;;;;;;;51.30;35.40;;;;;;;12.84;70.27;98173.73;232015;197;137900;-56
2024/03/04 19:28:10;;;;;;;44.00;32.90;;;;;;;12.77;70.42;98188.73;231995;198;153908;-58
2024/03/04 19:33:14;;;;;;;46.10;33.10;;;;;;;12.72;70.76;98198.45;232054;201;138082;-56
2024/03/04 19:38:17;;;;;;;46.80;34.50;;;;;;;12.70;70.87;98193.80;232187;205;138165;-56
2024/03/04 19:43:20;;;;;;;67.80;53.10;;;;;;;12.67;70.90;98184.77;232024;205;153607;-57
2024/03/04 19:48:24;;;;;;;52.60;35.30;;;;;;;12.69;71.49;98181.05;231912;204;137417;-58
2024/03/04 19:53:27;;;;;;;44.40;32.90;;;;;;;12.64;70.95;98182.89;232214;197;137811;-58
2024/03/04 19:58:30;;;;;;;47.00;32.90;;;;;;;12.53;70.96;98182.04;232056;201;153718;-54
2024/03/04 20:03:34;;;;;;;275.20;213.10;;;;;;;12.47;71.33;98177.38;232062;197;138942;-58
2024/03/04 20:08:40;;;;;;;46.40;33.90;;;;;;;12.50;71.48;98178.52;231854;205;138714;-57
2024/03/04 20:13:44;;;;;;;43.20;29.30;;;;;;;12.44;71.05;98180.86;232293;204;153868;-56
2024/03/04 20:18:47;;;;;;;38.80;28.80;;;;;;;12.33;71.08;98180.52;232152;197;138426;-56
2024/03/04 20:23:51;;;;;;;42.40;30.30;;;;;;;12.31;71.18;98180.15;232146;201;138439;-58
2024/03/04 20:28:54;;;;;;;36.00;29.60;;;;;;;12.30;71.00;98186.77;232012;198;153099;-55
2024/03/04 20:33:57;;;;;;;39.30;30.30;;;;;;;12.27;70.96;98190.59;232139;205;138627;-57
2024/03/04 20:39:02;;;;;;;104.60;82.70;;;;;;;12.27;71.45;98193.05;232253;198;138441;-59
2024/03/04 20:44:05;;;;;;;42.50;30.90;;;;;;;12.34;71.45;98192.16;232346;198;152986;-57
2024/03/04 20:49:08;;;;;;;38.50;29.90;;;;;;;12.25;71.05;98196.62;232017;198;139056;-57
2024/03/04 20:54:14;;;;;;;39.20;31.00;;;;;;;12.16;71.06;98210.42;232247;204;138483;-56
2024/03/04 20:59:17;;;;;;;39.20;29.10;;;;;;;12.05;71.28;98217.98;232143;202;153165;-59
2024/03/04 21:04:22;;;;;;;36.60;27.50;;;;;;;11.99;71.55;98223.83;232221;205;139084;-57
2024/03/04 21:09:25;;;;;;;38.30;28.70;;;;;;;12.00;71.75;98223.60;232193;202;141336;-53
2024/03/04 21:14:29;;;;;;;65.90;47.50;;;;;;;12.11;72.27;98212.90;232067;198;154022;-58
2024/03/04 21:19:33;;;;;;;39.60;30.40;;;;;;;12.18;71.62;98202.91;232000;198;138402;-56
2024/03/04 21:24:36;;;;;;;40.00;30.40;;;;;;;12.03;71.46;98216.89;231821;198;138657;-55
2024/03/04 21:29:42;;;;;;;38.90;31.20;;;;;;;11.95;71.76;98216.01;231847;205;153156;-58
2024/03/04 21:34:47;;;;;;;62.40;45.60;;;;;;;11.93;72.01;98224.33;232011;198;137663;-55
2024/03/04 21:39:50;;;;;;;40.20;29.20;;;;;;;11.94;72.01;98227.95;232218;199;138596;-57
2024/03/04 21:44:57;;;;;;;37.90;28.00;;;;;;;11.91;71.95;98216.27;231708;197;152949;-58
2024/03/04 21:50:01;;;;;;;39.00;29.40;;;;;;;11.98;72.14;98208.97;232070;205;137735;-59
2024/03/04 21:55:06;;;;;;;41.30;29.40;;;;;;;12.04;71.76;98218.41;232243;198;142294;-58
2024/03/04 22:00:18;;;;;;;42.20;31.00;;;;;;;12.01;71.75;98236.48;232158;205;154183;-55
2024/03/04 22:05:23;;;;;;;37.90;28.90;;;;;;;11.99;71.65;98237.86;231999;198;141900;-59
2024/03/04 22:10:26;;;;;;;39.20;30.00;;;;;;;11.92;71.83;98235.45;232043;198;138233;-57
2024/03/04 22:15:29;;;;;;;43.50;31.60;;;;;;;11.82;72.09;98229.23;232040;205;154292;-57
2024/03/04 22:20:32;;;;;;;36.50;29.60;;;;;;;11.77;72.16;98229.61;232150;201;137575;-57
2024/03/04 22:25:35;;;;;;;38.30;28.80;;;;;;;11.69;72.26;98228.13;231981;197;138001;-57
2024/03/04 22:30:39;;;;;;;37.40;28.60;;;;;;;11.69;72.38;98225.00;232184;205;154032;-58
2024/03/04 22:35:42;;;;;;;40.30;29.50;;;;;;;11.66;72.46;98223.08;231976;197;138053;-57
2024/03/04 22:40:47;;;;;;;40.40;29.30;;;;;;;11.62;72.65;98220.19;232110;204;138384;-58
2024/03/04 22:45:50;;;;;;;38.00;29.70;;;;;;;11.64;72.65;98214.72;232135;198;153298;-61
2024/03/04 22:50:54;;;;;;;40.50;29.00;;;;;;;11.67;72.48;98222.09;232031;205;138599;-57
2024/03/04 22:55:57;;;;;;;37.90;28.70;;;;;;;11.66;72.33;98222.35;232200;198;137580;-57
2024/03/04 23:01:03;;;;;;;33.40;26.30;;;;;;;11.65;72.35;98227.44;231902;198;156176;-57
2024/03/04 23:06:07;;;;;;;36.30;26.00;;;;;;;11.65;72.17;98229.94;232106;198;138441;-55